Welkom op de weersite van Veghel e.o.

Webcam Veghel  Webcam Veghel


Steenuil Veghel  Steenuil Veghel


Onweer radar Meer informatie blitzortung!


Regen radar Meer informatie rain snow radar


U vindt ons ook hier:

Het Weer Aktueel

European Weather Network

Benelux Weer Netwerk

AWEKAS


METAR rapporten vliegvelden

   
EHAM - Amsterdam
Gewijzigd: 04-10-2022 02:55
Helder  
Helder  
   Wind: Zuiden 7.4 km/h
Wind: Zuiden 7.4 km/h
Temperatuur: 12°C
Dauwpunt: 11°C
Vochtigheid: 94%
Barometer: 1022 hPa
Zicht: meer dan 10 km
Bewolking: Helder ft
EHAM 040055Z 18004KT CAVOK 12/11 Q1022 NOSIG
EHEH - Eindhoven
Gewijzigd: 04-10-2022 02:55
Nevel, Bewolking  
Nevel, Bewolking  
   Wind: Zuiden 1.9 km/h
Wind: Zuiden 1.9 km/h
Temperatuur: 10°C
Dauwpunt: 10°C
Vochtigheid: 100%
Barometer: 1023 hPa
Bewolking: Overcast
Zicht: 7 km
Bewolking: Gedeeltelijk bewolkt 3400 ft,
Bewolking 14000 ft
EHEH 040055Z AUTO 19001KT 7000 BR SCT034 OVC140 10/10 Q1023 WHT
EHGR - Gilze/Rijen
Gewijzigd: 04-10-2022 02:55
Bewolking  
Bewolking  
   Wind: Zuiden 7.4 km/h
Wind: Zuiden 7.4 km/h
Temperatuur: 10°C
Voelt als: 9°C
Dauwpunt: 10°C
Vochtigheid: 100%
Barometer: 1023 hPa
Bewolking: Overcast
Zicht: meer dan 10 km
Bewolking: Bewolking 12000 ft
EHGR 040055Z AUTO 19004KT 150V230 9999 OVC120 10/10 Q1023 BLU
EHBK - Maastricht
Gewijzigd: 04-10-2022 02:55
Gedeeltelijk bewolkt  
Gedeeltelijk bewolkt  
   Wind: ZZW 9.3 km/h
Wind: ZZW 9.3 km/h
Temperatuur: 9°C
Voelt als: 8°C
Dauwpunt: 8°C
Vochtigheid: 94%
Barometer: 1023 hPa
Bewolking: Partly Cloudy
Zicht: meer dan 10 km
Bewolking: Gedeeltelijk bewolkt ft
EHBK 040055Z AUTO 21005KT 9999 NSC 09/08 Q1023
EHVK - Volkel
Gewijzigd: 04-10-2022 02:55
Bewolking  
Bewolking  
   Wind: varieert 1.9 km/h
Wind: varieert 1.9 km/h
Temperatuur: 10°C
Dauwpunt: 10°C
Vochtigheid: 100%
Barometer: 1023 hPa
Bewolking: Overcast
Zicht: meer dan 10 km
Bewolking: Bewolking 12000 ft
EHVK 040055Z AUTO VRB01KT 9999 OVC120 10/10 Q1023 BLU
EHFS - Vlissingen
Gewijzigd: 04-10-2022 02:55
Gedeeltelijk bewolkt  
Gedeeltelijk bewolkt  
   Wind: Zuiden 16.7 km/h
Wind: Zuiden 16.7 km/h
Temperatuur: 12°C
Dauwpunt: 11°C
Vochtigheid: 94%
Barometer: 1022 hPa
Bewolking: Partly Cloudy
Zicht: meer dan 10 km
Bewolking: Gedeeltelijk bewolkt ft
EHFS 040055Z AUTO 17009KT 9999 NSC 12/11 Q1022

Script ontwikkeld door  Saratoga-weather.org Aangepast voor de template door  Weerstation Leuven

Apparatuur in gebruik:

Weerstation
Davis VP2

Weerprogramma
WeatherLink

Weercomputer
Sponsor

Webleverancier
My provider

Davis VP2

WeatherLink

Sponsor

My provider